This is the latest recevied weather packets stored in our database for station/object KB5SJ. If no packets are shown the sender has not sent any weather packets the latest 10 day(s).
| Time | Temp. | Humidity | Pressure | Rain* | Wind** | Luminosity | Snow |
|---|---|---|---|---|---|---|---|
| 1777547117 | 22.22° C | 98% | 1008.9 hPa | 0.25 mm | - | - | - |
| 1777534517 | 24.44° C | 95% | 1009 hPa | 0 mm | - | - | - |
| 1777531516 | 24.44° C | 94% | 1009.4 hPa | 0 mm | - | - | - |
| 1777524316 | 24.44° C | 94% | 1010.1 hPa | 0 mm | - | - | - |
| 1777523716 | 24.44° C | 94% | 1010 hPa | 0 mm | - | - | - |
| 1777520716 | 25° C | 92% | 1009.9 hPa | 0 mm | - | - | - |
| 1777510516 | 26.67° C | 87% | 1008.3 hPa | 0 mm | - | - | - |
| 1777508756 | 27.78° C | 85% | 1008.2 hPa | 0 mm | - | - | - |
| 1777508136 | 27.78° C | 85% | 1008.2 hPa | 0 mm | - | - | - |
| 1777505116 | 28.33° C | 84% | 1008.2 hPa | 0 mm | - | - | - |
| 1777494917 | 29.44° C | 84% | 1008.9 hPa | 0 mm | - | - | - |
| 1777493117 | 28.89° C | 86% | 1009.5 hPa | 0 mm | - | - | - |
| 1777482917 | 28.33° C | 88% | 1012.2 hPa | 0 mm | - | - | - |
| 1777481717 | 27.78° C | 88% | 1012.2 hPa | 0 mm | - | - | - |
| 1777476917 | 27.22° C | 90% | 1012 hPa | 0 mm | - | - | - |
| 1777472117 | 25.56° C | 96% | 1011.5 hPa | 0 mm | - | - | - |
| 1777470317 | 25° C | 97% | 1011.6 hPa | 0 mm | - | - | - |
| 1777448116 | 25° C | 94% | 1010.6 hPa | 0 mm | - | - | - |
| 1777443317 | 25.56° C | 95% | 1012.2 hPa | 0 mm | - | - | - |
| 1777442117 | 25.56° C | 94% | 1012.2 hPa | 0 mm | - | - | - |
| 1777441516 | 25.56° C | 94% | 1012.2 hPa | 0 mm | - | - | - |
| 1777440317 | 25.56° C | 94% | 1012.4 hPa | 0 mm | - | - | - |
| 1777437936 | 25° C | 94% | 1011.9 hPa | 0 mm | - | - | - |
| 1777436716 | 25° C | 94% | 1011.7 hPa | 0 mm | - | - | - |
| 1777433116 | 25° C | 92% | 1012.2 hPa | 0 mm | - | - | - |
* Rain latest hour (hover to see other rain measurements)
** Current wind speed in m/s (hover to see current wind gust speed)